sensor_id;sensor_type;location;lat;lon;timestamp;pressure;altitude;pressure_sealevel;temperature;humidity
12987;BME280;58897;51.960;5.582;2023-05-03T00:01:32;102618.25;;;7.34;100.00
12987;BME280;58897;51.960;5.582;2023-05-03T00:03:59;102627.09;;;7.22;100.00
12987;BME280;58897;51.960;5.582;2023-05-03T00:06:25;102628.81;;;7.23;100.00
12987;BME280;58897;51.960;5.582;2023-05-03T00:08:52;102628.50;;;7.27;100.00
12987;BME280;58897;51.960;5.582;2023-05-03T00:11:19;102630.56;;;7.24;100.00
12987;BME280;58897;51.960;5.582;2023-05-03T00:13:46;102627.38;;;7.17;100.00
12987;BME280;58897;51.960;5.582;2023-05-03T00:16:13;102618.47;;;7.17;100.00
12987;BME280;58897;51.960;5.582;2023-05-03T00:18:39;102617.03;;;7.11;100.00
12987;BME280;58897;51.960;5.582;2023-05-03T00:21:06;102625.31;;;7.08;100.00
12987;BME280;58897;51.960;5.582;2023-05-03T00:23:32;102618.47;;;6.89;100.00
12987;BME280;58897;51.960;5.582;2023-05-03T00:25:59;102617.06;;;6.97;100.00
12987;BME280;58897;51.960;5.582;2023-05-03T00:28:25;102618.78;;;6.98;100.00
12987;BME280;58897;51.960;5.582;2023-05-03T00:30:52;102614.56;;;6.94;100.00
12987;BME280;58897;51.960;5.582;2023-05-03T00:33:19;102618.97;;;6.95;100.00
12987;BME280;58897;51.960;5.582;2023-05-03T00:35:46;102614.47;;;6.96;100.00
12987;BME280;58897;51.960;5.582;2023-05-03T00:38:12;102624.91;;;7.00;100.00
12987;BME280;58897;51.960;5.582;2023-05-03T00:40:41;102618.47;;;6.89;100.00
12987;BME280;58897;51.960;5.582;2023-05-03T00:43:10;102619.94;;;6.94;100.00
12987;BME280;58897;51.960;5.582;2023-05-03T00:45:38;102623.09;;;6.87;100.00
12987;BME280;58897;51.960;5.582;2023-05-03T00:48:04;102619.34;;;6.89;100.00
12987;BME280;58897;51.960;5.582;2023-05-03T00:50:31;102620.03;;;6.78;100.00
12987;BME280;58897;51.960;5.582;2023-05-03T00:52:58;102617.03;;;6.83;100.00
12987;BME280;58897;51.960;5.582;2023-05-03T00:55:28;102608.03;;;6.84;100.00
12987;BME280;58897;51.960;5.582;2023-05-03T00:57:54;102612.16;;;6.90;100.00
12987;BME280;58897;51.960;5.582;2023-05-03T01:00:21;102616.38;;;6.65;100.00
12987;BME280;58897;51.960;5.582;2023-05-03T01:02:48;102609.38;;;6.77;100.00
12987;BME280;58897;51.960;5.582;2023-05-03T01:05:15;102613.13;;;6.74;100.00
12987;BME280;58897;51.960;5.582;2023-05-03T01:12:55;102608.03;;;6.56;100.00
12987;BME280;58897;51.960;5.582;2023-05-03T01:18:10;102612.75;;;6.66;100.00
12987;BME280;58897;51.960;5.582;2023-05-03T01:20:44;102617.34;;;6.64;100.00
12987;BME280;58897;51.960;5.582;2023-05-03T01:23:35;102608.91;;;6.56;100.00
12987;BME280;58897;51.960;5.582;2023-05-03T01:26:18;102623.47;;;6.52;100.00
12987;BME280;58897;51.960;5.582;2023-05-03T01:28:46;102617.69;;;6.44;100.00
12987;BME280;58897;51.960;5.582;2023-05-03T01:31:18;102615.00;;;6.44;100.00
12987;BME280;58897;51.960;5.582;2023-05-03T01:34:09;102619.63;;;6.42;100.00
12987;BME280;58897;51.960;5.582;2023-05-03T01:36:42;102624.03;;;6.43;100.00
12987;BME280;58897;51.960;5.582;2023-05-03T01:39:20;102624.13;;;6.42;100.00
12987;BME280;58897;51.960;5.582;2023-05-03T01:41:51;102624.22;;;6.40;100.00
12987;BME280;58897;51.960;5.582;2023-05-03T01:44:18;102618.69;;;6.43;100.00
12987;BME280;58897;51.960;5.582;2023-05-03T01:46:46;102612.53;;;6.41;100.00
12987;BME280;58897;51.960;5.582;2023-05-03T01:49:12;102614.75;;;6.49;100.00
12987;BME280;58897;51.960;5.582;2023-05-03T01:51:39;102615.69;;;6.48;100.00
12987;BME280;58897;51.960;5.582;2023-05-03T01:54:06;102613.59;;;6.39;100.00
12987;BME280;58897;51.960;5.582;2023-05-03T01:56:34;102612.03;;;6.35;100.00
12987;BME280;58897;51.960;5.582;2023-05-03T01:59:02;102615.78;;;6.32;100.00
12987;BME280;58897;51.960;5.582;2023-05-03T02:01:28;102616.81;;;6.30;100.00
12987;BME280;58897;51.960;5.582;2023-05-03T02:03:55;102623.13;;;6.29;100.00
12987;BME280;58897;51.960;5.582;2023-05-03T02:06:23;102620.28;;;6.32;100.00
12987;BME280;58897;51.960;5.582;2023-05-03T02:08:51;102617.41;;;6.35;100.00
12987;BME280;58897;51.960;5.582;2023-05-03T02:11:18;102620.97;;;6.35;100.00
12987;BME280;58897;51.960;5.582;2023-05-03T02:13:47;102622.09;;;6.31;100.00
12987;BME280;58897;51.960;5.582;2023-05-03T02:16:14;102619.03;;;6.23;100.00
12987;BME280;58897;51.960;5.582;2023-05-03T02:18:40;102617.69;;;6.30;100.00
12987;BME280;58897;51.960;5.582;2023-05-03T02:21:08;102618.94;;;6.25;100.00
12987;BME280;58897;51.960;5.582;2023-05-03T02:23:35;102615.09;;;6.29;100.00
12987;BME280;58897;51.960;5.582;2023-05-03T02:26:02;102616.25;;;6.25;100.00
12987;BME280;58897;51.960;5.582;2023-05-03T02:28:28;102608.94;;;6.27;100.00
12987;BME280;58897;51.960;5.582;2023-05-03T02:30:55;102606.84;;;6.17;100.00
12987;BME280;58897;51.960;5.582;2023-05-03T02:33:21;102603.75;;;6.23;100.00
12987;BME280;58897;51.960;5.582;2023-05-03T02:35:48;102597.22;;;6.13;100.00
12987;BME280;58897;51.960;5.582;2023-05-03T02:38:14;102598.97;;;6.14;100.00
12987;BME280;58897;51.960;5.582;2023-05-03T02:40:41;102591.22;;;6.10;100.00
12987;BME280;58897;51.960;5.582;2023-05-03T02:43:08;102589.56;;;6.07;100.00
12987;BME280;58897;51.960;5.582;2023-05-03T02:45:35;102590.09;;;5.98;100.00
12987;BME280;58897;51.960;5.582;2023-05-03T02:48:04;102585.63;;;5.99;100.00
12987;BME280;58897;51.960;5.582;2023-05-03T02:50:31;102583.56;;;5.88;100.00
12987;BME280;58897;51.960;5.582;2023-05-03T02:52:57;102581.97;;;6.00;100.00
12987;BME280;58897;51.960;5.582;2023-05-03T02:55:24;102582.69;;;5.88;100.00
12987;BME280;58897;51.960;5.582;2023-05-03T02:57:50;102575.59;;;5.87;100.00
12987;BME280;58897;51.960;5.582;2023-05-03T03:00:17;102578.03;;;5.91;100.00
12987;BME280;58897;51.960;5.582;2023-05-03T03:02:44;102571.63;;;5.78;100.00
12987;BME280;58897;51.960;5.582;2023-05-03T03:05:10;102566.25;;;5.78;100.00
12987;BME280;58897;51.960;5.582;2023-05-03T03:07:37;102580.72;;;5.76;100.00
12987;BME280;58897;51.960;5.582;2023-05-03T03:10:06;102572.75;;;5.90;100.00
12987;BME280;58897;51.960;5.582;2023-05-03T03:12:37;102572.91;;;5.87;100.00
12987;BME280;58897;51.960;5.582;2023-05-03T03:15:04;102571.09;;;5.87;100.00
12987;BME280;58897;51.960;5.582;2023-05-03T03:17:30;102585.28;;;5.74;100.00
12987;BME280;58897;51.960;5.582;2023-05-03T03:19:57;102581.38;;;5.79;100.00
12987;BME280;58897;51.960;5.582;2023-05-03T03:22:24;102584.25;;;5.76;100.00
12987;BME280;58897;51.960;5.582;2023-05-03T03:24:52;102585.91;;;5.79;100.00
12987;BME280;58897;51.960;5.582;2023-05-03T03:27:19;102588.09;;;5.56;100.00
12987;BME280;58897;51.960;5.582;2023-05-03T03:29:48;102588.53;;;5.49;100.00
12987;BME280;58897;51.960;5.582;2023-05-03T03:32:14;102590.03;;;5.39;100.00
12987;BME280;58897;51.960;5.582;2023-05-03T03:34:41;102588.09;;;5.56;100.00
12987;BME280;58897;51.960;5.582;2023-05-03T03:37:07;102586.19;;;5.58;100.00
12987;BME280;58897;51.960;5.582;2023-05-03T03:39:34;102592.53;;;5.42;100.00
12987;BME280;58897;51.960;5.582;2023-05-03T03:42:01;102582.63;;;5.58;100.00
12987;BME280;58897;51.960;5.582;2023-05-03T03:44:28;102581.84;;;5.72;100.00
12987;BME280;58897;51.960;5.582;2023-05-03T03:46:54;102586.59;;;5.67;100.00
12987;BME280;58897;51.960;5.582;2023-05-03T03:49:21;102588.78;;;5.60;100.00
12987;BME280;58897;51.960;5.582;2023-05-03T03:51:47;102591.47;;;5.60;100.00
12987;BME280;58897;51.960;5.582;2023-05-03T03:54:14;102586.38;;;5.55;100.00
12987;BME280;58897;51.960;5.582;2023-05-03T03:56:41;102588.22;;;5.55;100.00
12987;BME280;58897;51.960;5.582;2023-05-03T03:59:07;102598.41;;;5.48;100.00
12987;BME280;58897;51.960;5.582;2023-05-03T04:01:34;102592.72;;;5.39;100.00
12987;BME280;58897;51.960;5.582;2023-05-03T04:04:00;102593.81;;;5.50;100.00
12987;BME280;58897;51.960;5.582;2023-05-03T04:06:27;102611.09;;;5.45;100.00
12987;BME280;58897;51.960;5.582;2023-05-03T04:08:54;102610.44;;;5.41;100.00
12987;BME280;58897;51.960;5.582;2023-05-03T04:11:20;102604.09;;;5.42;100.00
12987;BME280;58897;51.960;5.582;2023-05-03T04:13:47;102606.63;;;5.45;100.00
12987;BME280;58897;51.960;5.582;2023-05-03T04:16:13;102606.72;;;5.44;100.00
12987;BME280;58897;51.960;5.582;2023-05-03T04:18:40;102617.25;;;5.47;100.00
12987;BME280;58897;51.960;5.582;2023-05-03T04:21:07;102609.84;;;5.36;100.00
12987;BME280;58897;51.960;5.582;2023-05-03T04:23:34;102609.72;;;5.38;100.00
12987;BME280;58897;51.960;5.582;2023-05-03T04:26:00;102599.38;;;5.32;100.00
12987;BME280;58897;51.960;5.582;2023-05-03T04:28:29;102607.41;;;5.47;100.00
12987;BME280;58897;51.960;5.582;2023-05-03T04:30:56;102609.22;;;5.47;100.00
12987;BME280;58897;51.960;5.582;2023-05-03T04:33:24;102620.28;;;5.41;100.00
12987;BME280;58897;51.960;5.582;2023-05-03T04:35:51;102623.06;;;5.39;100.00
12987;BME280;58897;51.960;5.582;2023-05-03T04:38:17;102625.97;;;5.50;100.00
12987;BME280;58897;51.960;5.582;2023-05-03T04:40:45;102628.66;;;5.50;100.00
12987;BME280;58897;51.960;5.582;2023-05-03T04:43:11;102636.47;;;5.55;100.00
12987;BME280;58897;51.960;5.582;2023-05-03T04:45:39;102636.91;;;5.47;100.00
12987;BME280;58897;51.960;5.582;2023-05-03T04:48:06;102642.84;;;5.52;100.00
12987;BME280;58897;51.960;5.582;2023-05-03T04:50:33;102642.50;;;5.43;100.00
12987;BME280;58897;51.960;5.582;2023-05-03T04:52:59;102653.38;;;5.55;100.00
12987;BME280;58897;51.960;5.582;2023-05-03T04:55:26;102654.84;;;5.45;100.00
12987;BME280;58897;51.960;5.582;2023-05-03T04:57:54;102658.34;;;5.47;100.00
12987;BME280;58897;51.960;5.582;2023-05-03T05:00:20;102665.34;;;5.50;100.00
12987;BME280;58897;51.960;5.582;2023-05-03T05:02:48;102658.84;;;5.54;100.00
12987;BME280;58897;51.960;5.582;2023-05-03T05:05:15;102672.09;;;5.57;100.00
12987;BME280;58897;51.960;5.582;2023-05-03T05:07:44;102663.88;;;5.60;100.00
12987;BME280;58897;51.960;5.582;2023-05-03T05:10:11;102658.66;;;5.73;100.00
12987;BME280;58897;51.960;5.582;2023-05-03T05:12:38;102664.38;;;5.67;100.00
12987;BME280;58897;51.960;5.582;2023-05-03T05:15:05;102658.34;;;5.63;100.00
12987;BME280;58897;51.960;5.582;2023-05-03T05:17:31;102666.19;;;5.66;100.00
12987;BME280;58897;51.960;5.582;2023-05-03T05:19:58;102664.53;;;5.63;100.00
12987;BME280;58897;51.960;5.582;2023-05-03T05:22:24;102661.50;;;5.70;100.00
12987;BME280;58897;51.960;5.582;2023-05-03T05:24:51;102662.53;;;5.83;100.00
12987;BME280;58897;51.960;5.582;2023-05-03T05:27:17;102672.09;;;5.88;100.00
12987;BME280;58897;51.960;5.582;2023-05-03T05:29:44;102671.09;;;5.89;100.00
12987;BME280;58897;51.960;5.582;2023-05-03T05:32:10;102676.22;;;5.94;100.00
12987;BME280;58897;51.960;5.582;2023-05-03T05:34:38;102673.53;;;5.94;100.00
12987;BME280;58897;51.960;5.582;2023-05-03T05:37:11;102679.34;;;6.02;100.00
12987;BME280;58897;51.960;5.582;2023-05-03T05:39:37;102666.69;;;6.04;100.00
12987;BME280;58897;51.960;5.582;2023-05-03T05:42:04;102675.44;;;6.07;100.00
12987;BME280;58897;51.960;5.582;2023-05-03T05:44:30;102679.00;;;6.22;100.00
12987;BME280;58897;51.960;5.582;2023-05-03T05:46:57;102680.53;;;6.26;100.00
12987;BME280;58897;51.960;5.582;2023-05-03T05:49:23;102684.66;;;6.17;100.00
12987;BME280;58897;51.960;5.582;2023-05-03T05:51:50;102681.53;;;6.25;100.00
12987;BME280;58897;51.960;5.582;2023-05-03T05:54:16;102678.78;;;6.41;100.00
12987;BME280;58897;51.960;5.582;2023-05-03T05:56:43;102671.28;;;6.32;100.00
12987;BME280;58897;51.960;5.582;2023-05-03T05:59:09;102672.84;;;6.36;100.00
12987;BME280;58897;51.960;5.582;2023-05-03T06:01:36;102674.94;;;6.45;100.00
12987;BME280;58897;51.960;5.582;2023-05-03T06:04:06;102673.31;;;6.42;100.00
12987;BME280;58897;51.960;5.582;2023-05-03T06:06:33;102678.13;;;6.51;100.00
12987;BME280;58897;51.960;5.582;2023-05-03T06:09:00;102670.50;;;6.59;100.00
12987;BME280;58897;51.960;5.582;2023-05-03T06:11:42;102668.97;;;6.69;100.00
12987;BME280;58897;51.960;5.582;2023-05-03T06:14:08;102674.22;;;6.57;100.00
12987;BME280;58897;51.960;5.582;2023-05-03T06:16:35;102673.94;;;6.75;100.00
12987;BME280;58897;51.960;5.582;2023-05-03T06:19:02;102675.84;;;6.73;100.00
12987;BME280;58897;51.960;5.582;2023-05-03T06:21:30;102676.28;;;6.96;100.00
12987;BME280;58897;51.960;5.582;2023-05-03T06:23:56;102678.78;;;6.99;100.00
12987;BME280;58897;51.960;5.582;2023-05-03T06:26:23;102681.63;;;7.24;100.00
12987;BME280;58897;51.960;5.582;2023-05-03T06:28:49;102676.03;;;7.41;100.00
12987;BME280;58897;51.960;5.582;2023-05-03T06:31:17;102678.44;;;7.45;100.00
12987;BME280;58897;51.960;5.582;2023-05-03T06:33:44;102673.56;;;7.65;100.00
12987;BME280;58897;51.960;5.582;2023-05-03T06:36:11;102663.94;;;8.01;100.00
12987;BME280;58897;51.960;5.582;2023-05-03T06:38:38;102650.69;;;8.38;100.00
12987;BME280;58897;51.960;5.582;2023-05-03T06:41:05;102651.38;;;8.79;100.00
12987;BME280;58897;51.960;5.582;2023-05-03T06:43:31;102642.72;;;9.12;100.00
12987;BME280;58897;51.960;5.582;2023-05-03T06:45:58;102641.59;;;9.63;100.00
12987;BME280;58897;51.960;5.582;2023-05-03T06:48:24;102649.13;;;9.94;100.00
12987;BME280;58897;51.960;5.582;2023-05-03T06:50:51;102643.34;;;9.88;100.00
12987;BME280;58897;51.960;5.582;2023-05-03T06:53:18;102637.78;;;10.37;100.00
12987;BME280;58897;51.960;5.582;2023-05-03T06:55:44;102643.41;;;11.02;100.00
12987;BME280;58897;51.960;5.582;2023-05-03T06:58:11;102640.31;;;10.73;100.00
12987;BME280;58897;51.960;5.582;2023-05-03T07:00:38;102646.84;;;11.04;100.00
12987;BME280;58897;51.960;5.582;2023-05-03T07:03:05;102635.34;;;11.78;100.00
12987;BME280;58897;51.960;5.582;2023-05-03T07:05:31;102647.19;;;11.98;100.00
12987;BME280;58897;51.960;5.582;2023-05-03T07:07:59;102648.50;;;11.71;100.00
12987;BME280;58897;51.960;5.582;2023-05-03T07:10:26;102647.53;;;11.61;100.00
12987;BME280;58897;51.960;5.582;2023-05-03T07:12:57;102656.09;;;11.89;100.00
12987;BME280;58897;51.960;5.582;2023-05-03T07:15:23;102643.34;;;12.53;100.00
12987;BME280;58897;51.960;5.582;2023-05-03T07:17:50;102645.53;;;12.59;100.00
12987;BME280;58897;51.960;5.582;2023-05-03T07:20:16;102640.84;;;12.19;100.00
12987;BME280;58897;51.960;5.582;2023-05-03T07:22:43;102636.03;;;12.94;100.00
12987;BME280;58897;51.960;5.582;2023-05-03T07:25:10;102636.19;;;12.93;98.82
12987;BME280;58897;51.960;5.582;2023-05-03T07:27:39;102635.41;;;12.81;99.35
12987;BME280;58897;51.960;5.582;2023-05-03T07:30:06;102630.56;;;12.85;93.10
12987;BME280;58897;51.960;5.582;2023-05-03T07:32:33;102633.03;;;13.18;91.48
12987;BME280;58897;51.960;5.582;2023-05-03T07:34:59;102623.19;;;12.96;93.28
12987;BME280;58897;51.960;5.582;2023-05-03T07:37:26;102615.84;;;13.08;86.97
12987;BME280;58897;51.960;5.582;2023-05-03T07:39:53;102609.00;;;13.63;87.11
12987;BME280;58897;51.960;5.582;2023-05-03T07:42:19;102606.41;;;13.42;84.45
12987;BME280;58897;51.960;5.582;2023-05-03T07:44:46;102600.53;;;13.37;84.84
12987;BME280;58897;51.960;5.582;2023-05-03T07:47:12;102603.09;;;13.48;83.89
12987;BME280;58897;51.960;5.582;2023-05-03T07:49:39;102606.69;;;13.09;84.42
12987;BME280;58897;51.960;5.582;2023-05-03T07:52:05;102607.88;;;13.75;87.95
12987;BME280;58897;51.960;5.582;2023-05-03T07:54:32;102598.88;;;14.13;79.99
12987;BME280;58897;51.960;5.582;2023-05-03T07:56:59;102589.50;;;14.73;81.07
12987;BME280;58897;51.960;5.582;2023-05-03T07:59:25;102583.19;;;14.72;76.40
12987;BME280;58897;51.960;5.582;2023-05-03T08:01:52;102586.78;;;14.63;73.42
12987;BME280;58897;51.960;5.582;2023-05-03T08:04:19;102585.63;;;14.66;77.29
12987;BME280;58897;51.960;5.582;2023-05-03T08:06:46;102581.00;;;15.13;75.02
12987;BME280;58897;51.960;5.582;2023-05-03T08:09:13;102583.09;;;14.92;75.72
12987;BME280;58897;51.960;5.582;2023-05-03T08:11:41;102584.66;;;14.94;76.58
12987;BME280;58897;51.960;5.582;2023-05-03T08:14:09;102582.81;;;15.49;70.12
12987;BME280;58897;51.960;5.582;2023-05-03T08:16:36;102589.06;;;15.32;67.30
12987;BME280;58897;51.960;5.582;2023-05-03T08:19:03;102585.81;;;15.56;64.67
12987;BME280;58897;51.960;5.582;2023-05-03T08:21:30;102595.41;;;14.96;68.13
12987;BME280;58897;51.960;5.582;2023-05-03T08:23:58;102585.28;;;15.15;70.07
12987;BME280;58897;51.960;5.582;2023-05-03T08:26:26;102586.06;;;15.80;64.51
12987;BME280;58897;51.960;5.582;2023-05-03T08:28:53;102582.09;;;15.92;65.53
12987;BME280;58897;51.960;5.582;2023-05-03T08:31:20;102574.22;;;16.50;61.86
12987;BME280;58897;51.960;5.582;2023-05-03T08:33:47;102576.47;;;16.11;71.49
12987;BME280;58897;51.960;5.582;2023-05-03T08:36:13;102569.47;;;16.78;62.94
12987;BME280;58897;51.960;5.582;2023-05-03T08:38:40;102566.50;;;16.45;61.57
12987;BME280;58897;51.960;5.582;2023-05-03T08:41:18;102566.28;;;15.78;62.42
12987;BME280;58897;51.960;5.582;2023-05-03T08:43:51;102552.91;;;16.79;57.97
12987;BME280;58897;51.960;5.582;2023-05-03T08:46:19;102555.50;;;16.81;61.66
12987;BME280;58897;51.960;5.582;2023-05-03T08:48:50;102550.84;;;16.47;57.94
12987;BME280;58897;51.960;5.582;2023-05-03T08:51:19;102553.69;;;16.63;59.61
12987;BME280;58897;51.960;5.582;2023-05-03T08:53:47;102561.09;;;16.79;58.86
12987;BME280;58897;51.960;5.582;2023-05-03T08:56:33;102546.59;;;17.12;55.94
12987;BME280;58897;51.960;5.582;2023-05-03T08:59:04;102555.25;;;16.48;56.17
12987;BME280;58897;51.960;5.582;2023-05-03T09:01:38;102564.59;;;16.63;58.44
12987;BME280;58897;51.960;5.582;2023-05-03T09:04:06;102569.16;;;17.22;58.93
12987;BME280;58897;51.960;5.582;2023-05-03T09:06:33;102577.38;;;17.31;54.05
12987;BME280;58897;51.960;5.582;2023-05-03T09:09:01;102576.69;;;17.37;57.40
12987;BME280;58897;51.960;5.582;2023-05-03T09:11:31;102581.84;;;16.98;56.89
12987;BME280;58897;51.960;5.582;2023-05-03T09:16:35;102579.00;;;17.49;54.46
12987;BME280;58897;51.960;5.582;2023-05-03T09:19:03;102582.50;;;16.92;59.95
12987;BME280;58897;51.960;5.582;2023-05-03T09:21:31;102577.88;;;17.92;50.50
12987;BME280;58897;51.960;5.582;2023-05-03T09:23:58;102572.53;;;18.87;51.47
12987;BME280;58897;51.960;5.582;2023-05-03T09:26:33;102572.44;;;18.40;48.11
12987;BME280;58897;51.960;5.582;2023-05-03T09:29:03;102571.94;;;19.08;49.82
12987;BME280;58897;51.960;5.582;2023-05-03T09:31:31;102569.78;;;18.87;48.59
12987;BME280;58897;51.960;5.582;2023-05-03T09:33:58;102560.09;;;18.61;49.62
12987;BME280;58897;51.960;5.582;2023-05-03T09:36:26;102571.53;;;18.72;47.19
12987;BME280;58897;51.960;5.582;2023-05-03T09:38:53;102563.25;;;19.66;46.26
12987;BME280;58897;51.960;5.582;2023-05-03T09:41:27;102564.44;;;19.41;45.95
12987;BME280;58897;51.960;5.582;2023-05-03T09:43:54;102559.34;;;19.22;44.12
12987;BME280;58897;51.960;5.582;2023-05-03T09:46:22;102561.16;;;18.98;47.12
12987;BME280;58897;51.960;5.582;2023-05-03T09:48:52;102568.81;;;19.11;47.08
12987;BME280;58897;51.960;5.582;2023-05-03T09:51:22;102566.44;;;18.53;49.28
12987;BME280;58897;51.960;5.582;2023-05-03T09:53:49;102567.63;;;18.59;46.14
12987;BME280;58897;51.960;5.582;2023-05-03T09:56:16;102574.66;;;19.16;48.08
12987;BME280;58897;51.960;5.582;2023-05-03T09:58:45;102564.34;;;18.79;45.26
12987;BME280;58897;51.960;5.582;2023-05-03T10:01:13;102566.44;;;18.61;49.35
12987;BME280;58897;51.960;5.582;2023-05-03T10:03:43;102559.44;;;18.51;47.15
12987;BME280;58897;51.960;5.582;2023-05-03T10:06:35;102571.91;;;18.37;47.34
12987;BME280;58897;51.960;5.582;2023-05-03T10:09:23;102561.59;;;19.26;46.08
12987;BME280;58897;51.960;5.582;2023-05-03T10:11:53;102565.09;;;19.04;48.53
12987;BME280;58897;51.960;5.582;2023-05-03T10:14:20;102567.50;;;18.99;47.75
12987;BME280;58897;51.960;5.582;2023-05-03T10:16:52;102561.31;;;19.13;45.61
12987;BME280;58897;51.960;5.582;2023-05-03T10:22:06;102558.56;;;19.13;45.12
12987;BME280;58897;51.960;5.582;2023-05-03T10:24:34;102546.75;;;19.97;44.42
12987;BME280;58897;51.960;5.582;2023-05-03T10:27:01;102551.16;;;20.43;43.25
12987;BME280;58897;51.960;5.582;2023-05-03T10:32:34;102534.78;;;20.50;42.05
12987;BME280;58897;51.960;5.582;2023-05-03T10:35:07;102531.38;;;20.62;39.87
12987;BME280;58897;51.960;5.582;2023-05-03T10:37:35;102534.91;;;19.73;41.97
12987;BME280;58897;51.960;5.582;2023-05-03T10:40:13;102539.06;;;19.69;44.59
12987;BME280;58897;51.960;5.582;2023-05-03T10:42:59;102530.47;;;20.70;41.66
12987;BME280;58897;51.960;5.582;2023-05-03T10:45:27;102534.44;;;19.93;46.05
12987;BME280;58897;51.960;5.582;2023-05-03T10:50:39;102536.38;;;20.07;44.43
12987;BME280;58897;51.960;5.582;2023-05-03T10:53:06;102517.56;;;20.70;40.65
12987;BME280;58897;51.960;5.582;2023-05-03T10:55:33;102527.03;;;20.16;45.62
12987;BME280;58897;51.960;5.582;2023-05-03T10:58:00;102531.56;;;19.33;43.46
12987;BME280;58897;51.960;5.582;2023-05-03T11:05:50;102506.84;;;19.71;46.04
12987;BME280;58897;51.960;5.582;2023-05-03T11:08:19;102498.16;;;20.72;44.03
12987;BME280;58897;51.960;5.582;2023-05-03T11:10:49;102501.56;;;20.30;43.75
12987;BME280;58897;51.960;5.582;2023-05-03T11:13:16;102509.16;;;19.60;44.68
12987;BME280;58897;51.960;5.582;2023-05-03T11:15:43;102505.25;;;19.77;46.25
12987;BME280;58897;51.960;5.582;2023-05-03T11:18:13;102504.28;;;19.08;50.84
12987;BME280;58897;51.960;5.582;2023-05-03T11:20:40;102505.91;;;18.95;45.10
12987;BME280;58897;51.960;5.582;2023-05-03T11:23:06;102498.19;;;19.83;45.93
12987;BME280;58897;51.960;5.582;2023-05-03T11:25:33;102495.78;;;20.40;43.38
12987;BME280;58897;51.960;5.582;2023-05-03T11:28:00;102492.38;;;20.52;42.71
12987;BME280;58897;51.960;5.582;2023-05-03T11:30:28;102490.31;;;19.34;44.74
12987;BME280;58897;51.960;5.582;2023-05-03T11:32:55;102479.19;;;19.58;47.56
12987;BME280;58897;51.960;5.582;2023-05-03T11:35:22;102487.72;;;19.41;45.49
12987;BME280;58897;51.960;5.582;2023-05-03T11:37:51;102482.03;;;18.73;45.86
12987;BME280;58897;51.960;5.582;2023-05-03T11:40:18;102485.22;;;18.92;47.36
12987;BME280;58897;51.960;5.582;2023-05-03T11:42:55;102472.00;;;19.57;46.48
12987;BME280;58897;51.960;5.582;2023-05-03T11:45:31;102473.00;;;19.34;48.33
12987;BME280;58897;51.960;5.582;2023-05-03T11:48:04;102467.81;;;19.47;43.80
12987;BME280;58897;51.960;5.582;2023-05-03T11:50:53;102459.69;;;19.53;44.02
12987;BME280;58897;51.960;5.582;2023-05-03T11:53:24;102460.25;;;19.49;51.18
12987;BME280;58897;51.960;5.582;2023-05-03T11:55:52;102453.22;;;20.06;42.99
12987;BME280;58897;51.960;5.582;2023-05-03T11:58:20;102462.84;;;20.02;45.78
12987;BME280;58897;51.960;5.582;2023-05-03T12:00:52;102448.91;;;20.70;46.77
12987;BME280;58897;51.960;5.582;2023-05-03T12:03:29;102450.78;;;21.14;47.36
12987;BME280;58897;51.960;5.582;2023-05-03T12:05:59;102445.66;;;21.11;42.83
12987;BME280;58897;51.960;5.582;2023-05-03T12:08:31;102443.69;;;20.17;42.13
12987;BME280;58897;51.960;5.582;2023-05-03T12:11:05;102446.72;;;20.22;45.28
12987;BME280;58897;51.960;5.582;2023-05-03T12:13:34;102439.59;;;20.13;45.21
12987;BME280;58897;51.960;5.582;2023-05-03T12:16:06;102443.56;;;19.05;46.02
12987;BME280;58897;51.960;5.582;2023-05-03T12:21:23;102426.75;;;19.99;43.25
12987;BME280;58897;51.960;5.582;2023-05-03T12:23:56;102431.38;;;19.38;43.00
12987;BME280;58897;51.960;5.582;2023-05-03T12:26:25;102424.16;;;19.97;44.56
12987;BME280;58897;51.960;5.582;2023-05-03T12:28:51;102424.56;;;20.09;43.45
12987;BME280;58897;51.960;5.582;2023-05-03T12:31:22;102422.53;;;20.25;41.54
12987;BME280;58897;51.960;5.582;2023-05-03T12:33:49;102416.47;;;20.45;45.27
12987;BME280;58897;51.960;5.582;2023-05-03T12:36:36;102408.97;;;20.68;42.37
12987;BME280;58897;51.960;5.582;2023-05-03T12:39:04;102395.84;;;20.49;41.56
12987;BME280;58897;51.960;5.582;2023-05-03T12:41:35;102407.44;;;20.21;48.34
12987;BME280;58897;51.960;5.582;2023-05-03T12:44:04;102410.16;;;19.92;45.58
12987;BME280;58897;51.960;5.582;2023-05-03T12:46:36;102403.50;;;19.04;44.90
12987;BME280;58897;51.960;5.582;2023-05-03T12:49:03;102393.53;;;19.34;49.32
12987;BME280;58897;51.960;5.582;2023-05-03T12:51:33;102390.06;;;20.14;43.85
12987;BME280;58897;51.960;5.582;2023-05-03T12:54:00;102390.16;;;19.54;47.16
12987;BME280;58897;51.960;5.582;2023-05-03T12:56:28;102382.44;;;19.87;42.72
12987;BME280;58897;51.960;5.582;2023-05-03T12:58:58;102389.00;;;19.63;43.44
12987;BME280;58897;51.960;5.582;2023-05-03T13:01:45;102371.88;;;19.47;44.21
12987;BME280;58897;51.960;5.582;2023-05-03T13:04:31;102375.38;;;20.22;46.30
12987;BME280;58897;51.960;5.582;2023-05-03T13:07:18;102367.38;;;20.35;43.47
12987;BME280;58897;51.960;5.582;2023-05-03T13:09:54;102376.47;;;19.69;46.11
12987;BME280;58897;51.960;5.582;2023-05-03T13:12:24;102367.53;;;20.33;45.87
12987;BME280;58897;51.960;5.582;2023-05-03T13:14:52;102358.13;;;19.69;41.77
12987;BME280;58897;51.960;5.582;2023-05-03T13:17:20;102355.44;;;19.47;45.16
12987;BME280;58897;51.960;5.582;2023-05-03T13:19:49;102347.16;;;19.84;45.09
12987;BME280;58897;51.960;5.582;2023-05-03T13:22:16;102346.72;;;19.81;43.11
12987;BME280;58897;51.960;5.582;2023-05-03T13:24:44;102337.94;;;20.29;44.86